Time;durP1;ratioP1;P1;durP2;ratioP2;P2;SDS_P1;SDS_P2;PMS_P1;PMS_P2;Temp;Humidity;BMP_temperature;BMP_pressure;BME280_temperature;BME280_humidity;BME280_pressure;Samples;Min_cycle;Max_cycle;Signal;HPM_P1;HPM_P2
2022/03/07 00:00:58;;;;;;;20.20;11.02;;;;;;;-2.36;74.05;102436.16;5008691;28;20098;-68
2022/03/07 00:03:24;;;;;;;22.27;11.27;;;;;;;-2.40;74.09;102439.66;5006105;28;20039;-67
2022/03/07 00:05:50;;;;;;;23.00;12.48;;;;;;;-2.42;74.11;102445.63;5022637;28;20764;-67
2022/03/07 00:08:16;;;;;;;22.67;12.60;;;;;;;-2.47;74.20;102445.72;5026754;28;20044;-68
2022/03/07 00:10:41;;;;;;;20.23;11.20;;;;;;;-2.49;74.27;102441.53;5022867;28;20565;-68
2022/03/07 00:13:07;;;;;;;26.10;12.18;;;;;;;-2.52;74.69;102449.22;5029394;28;20029;-67
2022/03/07 00:15:32;;;;;;;23.85;12.77;;;;;;;-2.55;74.56;102448.41;5027078;28;20029;-67
2022/03/07 00:17:58;;;;;;;22.80;11.38;;;;;;;-2.56;74.65;102438.31;5004576;28;20483;-67
2022/03/07 00:20:23;;;;;;;23.42;12.70;;;;;;;-2.59;74.56;102443.44;5021929;28;20041;-69
2022/03/07 00:22:49;;;;;;;27.50;12.90;;;;;;;-2.61;74.56;102450.25;4990493;28;20078;-67
2022/03/07 00:25:16;;;;;;;20.35;11.85;;;;;;;-2.64;74.91;102451.13;5019390;28;20064;-67
2022/03/07 00:27:42;;;;;;;25.05;12.27;;;;;;;-2.66;75.25;102455.41;5001655;28;20487;-70
2022/03/07 00:30:08;;;;;;;21.10;12.05;;;;;;;-2.68;75.30;102454.59;5001689;28;20040;-68
2022/03/07 00:32:34;;;;;;;23.10;12.38;;;;;;;-2.71;75.55;102456.38;5003333;28;20030;-68
2022/03/07 00:34:59;;;;;;;27.05;12.35;;;;;;;-2.75;75.46;102460.66;5021124;28;20439;-67
2022/03/07 00:37:25;;;;;;;25.00;13.40;;;;;;;-2.79;75.90;102459.91;5019448;28;20075;-67
2022/03/07 00:39:51;;;;;;;23.42;11.93;;;;;;;-2.81;75.85;102461.63;5004291;28;20566;-67
2022/03/07 00:42:16;;;;;;;23.67;12.50;;;;;;;-2.84;76.29;102460.88;5024409;28;20033;-68
2022/03/07 00:44:42;;;;;;;31.10;13.70;;;;;;;-2.87;76.28;102458.38;5019540;28;20095;-67
2022/03/07 00:47:07;;;;;;;30.38;13.70;;;;;;;-2.90;76.18;102464.38;5023354;28;20038;-68
2022/03/07 00:49:33;;;;;;;24.55;13.23;;;;;;;-2.90;76.55;102464.38;5023092;28;20107;-67
2022/03/07 00:51:58;;;;;;;29.35;13.55;;;;;;;-2.94;76.67;102450.88;4987894;28;20030;-67
2022/03/07 00:54:24;;;;;;;26.73;13.45;;;;;;;-2.93;76.72;102461.88;5005922;28;20581;-67
2022/03/07 00:56:50;;;;;;;27.95;13.38;;;;;;;-2.95;76.67;102459.34;5003706;28;20038;-68
2022/03/07 00:59:15;;;;;;;25.90;13.02;;;;;;;-2.97;76.96;102455.19;5024200;28;20038;-67
2022/03/07 01:01:41;;;;;;;25.67;13.48;;;;;;;-2.97;76.95;102467.88;5021843;28;20589;-67
2022/03/07 01:04:06;;;;;;;29.92;14.77;;;;;;;-3.00;77.06;102461.13;5003529;28;20037;-67
2022/03/07 01:06:32;;;;;;;28.65;14.93;;;;;;;-2.98;77.24;102463.66;5018382;28;20053;-69
2022/03/07 01:08:58;;;;;;;27.27;15.45;;;;;;;-2.99;77.11;102470.44;5006154;28;20025;-67
2022/03/07 01:11:23;;;;;;;35.38;17.52;;;;;;;-3.00;77.00;102460.31;5000751;28;20043;-69
2022/03/07 01:13:49;;;;;;;39.85;19.38;;;;;;;-3.00;76.66;102462.84;5007184;28;20096;-68
2022/03/07 01:16:14;;;;;;;43.03;19.15;;;;;;;-3.01;76.90;102474.69;5005558;28;20044;-68
2022/03/07 01:18:41;;;;;;;35.20;18.98;;;;;;;-3.04;77.21;102469.66;5007266;28;20029;-66
2022/03/07 01:21:07;;;;;;;38.20;19.52;;;;;;;-3.06;77.20;102471.41;5025791;28;20033;-68
2022/03/07 01:23:32;;;;;;;36.30;18.60;;;;;;;-3.06;77.15;102468.03;5025248;28;20036;-68
2022/03/07 01:25:57;;;;;;;45.45;20.35;;;;;;;-3.08;76.97;102465.50;5005494;28;20025;-67
2022/03/07 01:28:24;;;;;;;33.80;16.70;;;;;;;-3.07;77.33;102461.25;4983505;28;20087;-67
2022/03/07 01:30:49;;;;;;;38.28;17.60;;;;;;;-3.07;77.31;102456.19;5002856;28;20168;-67
2022/03/07 01:33:15;;;;;;;41.42;18.42;;;;;;;-3.06;77.37;102461.25;5009934;28;20411;-67
2022/03/07 01:35:41;;;;;;;33.08;17.02;;;;;;;-3.07;77.32;102463.81;5023062;28;20040;-69
2022/03/07 01:38:06;;;;;;;33.67;16.17;;;;;;;-3.08;77.61;102462.97;5005407;28;20045;-66
2022/03/07 01:40:33;;;;;;;33.28;15.88;;;;;;;-3.08;77.64;102457.06;5011532;28;20037;-65
2022/03/07 01:42:58;;;;;;;32.42;15.88;;;;;;;-3.09;77.44;102456.22;5011568;28;20526;-65
2022/03/07 01:45:24;;;;;;;34.75;16.13;;;;;;;-3.09;77.56;102460.47;4995526;28;20045;-65
2022/03/07 01:47:49;;;;;;;28.38;14.27;;;;;;;-3.10;77.61;102454.56;5011646;28;20041;-64
2022/03/07 01:50:18;;;;;;;37.95;15.18;;;;;;;-3.11;77.65;102452.88;5010093;28;20327;-65
2022/03/07 01:52:52;;;;;;;32.85;16.25;;;;;;;-3.12;77.54;102458.81;4990412;28;20049;-65
2022/03/07 01:55:19;;;;;;;27.30;14.27;;;;;;;-3.13;77.56;102450.38;5019080;28;20037;-65
2022/03/07 01:57:54;;;;;;;30.80;15.02;;;;;;;-3.13;77.73;102449.53;5009854;28;20513;-64
2022/03/07 02:00:22;;;;;;;31.45;15.88;;;;;;;-3.14;77.68;102443.63;4993566;28;20025;-65
2022/03/07 02:02:49;;;;;;;31.05;15.65;;;;;;;-3.13;77.77;102439.38;5006298;28;20033;-65
2022/03/07 02:05:19;;;;;;;31.05;14.70;;;;;;;-3.14;77.83;102435.19;4999751;28;20594;-65
2022/03/07 02:07:50;;;;;;;35.00;15.68;;;;;;;-3.15;77.86;102439.38;5021082;28;20511;-65
2022/03/07 02:10:16;;;;;;;30.60;14.98;;;;;;;-3.14;78.27;102437.72;5006180;28;20057;-64
2022/03/07 02:12:43;;;;;;;29.20;15.98;;;;;;;-3.14;78.00;102440.25;5005651;28;20067;-64
2022/03/07 02:15:08;;;;;;;30.70;15.18;;;;;;;-3.15;78.15;102436.03;5012595;28;20030;-65
2022/03/07 02:17:36;;;;;;;36.45;15.48;;;;;;;-3.14;78.15;102440.25;5018951;28;20112;-65
2022/03/07 02:20:02;;;;;;;33.22;16.20;;;;;;;-3.14;77.93;102441.09;5005750;28;20117;-65
2022/03/07 02:22:28;;;;;;;31.50;15.35;;;;;;;-3.13;78.34;102442.78;5009689;28;20053;-65
2022/03/07 02:24:54;;;;;;;35.55;15.60;;;;;;;-3.11;78.10;102436.81;5006458;28;20451;-65
2022/03/07 02:27:19;;;;;;;30.73;15.15;;;;;;;-3.13;78.32;102437.69;5005742;28;20036;-65
2022/03/07 02:29:47;;;;;;;37.20;16.33;;;;;;;-3.09;78.28;102438.44;5000501;28;20026;-65
2022/03/07 02:32:20;;;;;;;33.78;15.77;;;;;;;-3.08;78.80;102441.84;5024947;28;20124;-65
2022/03/07 02:34:48;;;;;;;33.05;15.38;;;;;;;-3.09;78.72;102430.00;5005955;28;20660;-65
2022/03/07 02:37:15;;;;;;;32.97;15.68;;;;;;;-3.09;78.77;102432.53;5018210;28;20030;-65
2022/03/07 02:39:46;;;;;;;37.17;17.25;;;;;;;-3.06;79.14;102433.31;5007546;28;20499;-65
2022/03/07 02:42:12;;;;;;;34.80;16.00;;;;;;;-3.05;79.19;102432.47;5004967;28;20037;-65
2022/03/07 02:44:39;;;;;;;34.08;17.02;;;;;;;-3.04;79.31;102439.22;5016909;28;20121;-66
2022/03/07 02:47:05;;;;;;;31.98;16.35;;;;;;;-3.02;79.37;102429.03;5016175;28;20060;-66
2022/03/07 02:49:31;;;;;;;30.73;16.50;;;;;;;-3.02;79.42;102429.84;5023279;28;20507;-65
2022/03/07 02:51:57;;;;;;;31.95;15.90;;;;;;;-3.01;79.84;102434.09;4988980;28;20033;-65
2022/03/07 02:54:22;;;;;;;35.65;16.92;;;;;;;-2.99;79.64;102431.53;5026574;28;20427;-65
2022/03/07 02:56:49;;;;;;;33.63;17.23;;;;;;;-2.98;79.68;102439.09;5007976;28;20069;-65
2022/03/07 02:59:15;;;;;;;35.55;17.67;;;;;;;-2.98;79.73;102428.09;4993924;28;20037;-65
2022/03/07 03:01:42;;;;;;;36.20;16.48;;;;;;;-2.96;79.88;102429.78;5004335;28;20090;-65
2022/03/07 03:04:08;;;;;;;38.83;16.23;;;;;;;-2.97;79.92;102420.47;5024076;28;20095;-66
2022/03/07 03:06:34;;;;;;;38.92;16.65;;;;;;;-2.96;79.99;102423.84;5024180;28;20033;-66
2022/03/07 03:08:59;;;;;;;36.22;16.67;;;;;;;-2.95;80.00;102431.44;5028670;28;20022;-65
2022/03/07 03:11:24;;;;;;;30.98;16.58;;;;;;;-2.94;80.47;102422.09;5024384;28;20399;-65
2022/03/07 03:13:50;;;;;;;34.70;16.75;;;;;;;-2.92;80.39;102425.44;5026497;28;20033;-65
2022/03/07 03:16:16;;;;;;;36.83;16.08;;;;;;;-2.91;80.33;102426.31;5009540;28;20018;-66
2022/03/07 03:18:41;;;;;;;32.60;16.83;;;;;;;-2.91;80.54;102428.84;5027796;28;20506;-65
2022/03/07 03:21:07;;;;;;;39.78;17.52;;;;;;;-2.90;80.71;102421.19;5025014;28;20755;-65
2022/03/07 03:23:32;;;;;;;33.70;15.98;;;;;;;-2.89;80.42;102432.19;5026589;28;20043;-65
2022/03/07 03:25:58;;;;;;;35.75;16.55;;;;;;;-2.90;80.75;102435.56;5004872;28;20026;-64
2022/03/07 03:28:23;;;;;;;36.90;16.65;;;;;;;-2.88;80.52;102436.38;5009582;28;20542;-65
2022/03/07 03:30:50;;;;;;;35.78;16.63;;;;;;;-2.87;80.78;102435.53;5004694;28;20071;-65
2022/03/07 03:33:16;;;;;;;33.92;16.27;;;;;;;-2.86;80.14;102444.78;5025812;28;20038;-65
2022/03/07 03:35:41;;;;;;;41.08;17.73;;;;;;;-2.85;80.91;102441.41;5004501;28;20044;-65
2022/03/07 03:38:08;;;;;;;37.63;17.13;;;;;;;-2.84;80.63;102449.00;5008126;28;20040;-66
2022/03/07 03:40:35;;;;;;;33.92;18.15;;;;;;;-2.83;80.99;102444.75;5014941;28;20036;-65
2022/03/07 03:43:00;;;;;;;35.55;17.58;;;;;;;-2.81;80.90;102448.09;5026119;28;20395;-66
2022/03/07 03:45:26;;;;;;;34.58;16.05;;;;;;;-2.80;81.11;102442.16;5024326;28;20025;-66
2022/03/07 03:47:52;;;;;;;38.45;18.52;;;;;;;-2.76;81.21;102441.22;5022320;28;20044;-65
2022/03/07 03:50:17;;;;;;;31.95;16.92;;;;;;;-2.75;81.42;102448.81;5023133;28;20038;-65
2022/03/07 03:52:43;;;;;;;37.20;17.35;;;;;;;-2.72;81.51;102450.47;5025777;28;20034;-65
2022/03/07 03:55:11;;;;;;;33.08;17.33;;;;;;;-2.68;81.31;102451.25;5010144;28;20024;-65
2022/03/07 03:57:38;;;;;;;33.92;17.55;;;;;;;-2.66;81.65;102450.34;5024123;28;20124;-66
2022/03/07 04:00:06;;;;;;;35.47;17.13;;;;;;;-2.66;81.91;102452.88;5009487;28;20084;-66
2022/03/07 04:02:37;;;;;;;32.83;17.67;;;;;;;-2.68;82.10;102452.06;5020975;28;20044;-66
2022/03/07 04:05:03;;;;;;;32.00;15.95;;;;;;;-2.66;82.08;102467.28;5005422;28;20122;-66
2022/03/07 04:07:29;;;;;;;32.65;16.80;;;;;;;-2.65;82.16;102459.63;5008996;28;20120;-66
2022/03/07 04:09:54;;;;;;;40.45;18.48;;;;;;;-2.60;82.46;102459.53;5007125;28;20041;-65
2022/03/07 04:12:20;;;;;;;32.92;18.48;;;;;;;-2.53;81.69;102460.25;5007746;28;20117;-66
2022/03/07 04:14:46;;;;;;;39.35;17.35;;;;;;;-2.54;81.66;102451.81;5002014;28;20076;-66
2022/03/07 04:17:11;;;;;;;31.27;16.15;;;;;;;-2.55;81.56;102458.56;4992320;28;20063;-66
2022/03/07 04:19:37;;;;;;;32.78;16.70;;;;;;;-2.51;81.15;102458.53;5025446;28;20438;-66
2022/03/07 04:22:02;;;;;;;35.65;17.58;;;;;;;-2.49;81.37;102454.25;5014177;28;20029;-65
2022/03/07 04:24:30;;;;;;;33.83;17.23;;;;;;;-2.49;81.14;102459.31;5001646;28;20056;-70
2022/03/07 04:26:57;;;;;;;34.67;17.70;;;;;;;-2.46;80.82;102457.56;5006620;28;20069;-69
2022/03/07 04:29:23;;;;;;;32.58;16.75;;;;;;;-2.45;81.05;102459.25;5021983;28;20033;-68
2022/03/07 04:31:49;;;;;;;30.38;15.95;;;;;;;-2.43;80.89;102464.28;5025918;28;20033;-68
2022/03/07 04:34:14;;;;;;;37.80;16.52;;;;;;;-2.40;80.46;102465.06;5005519;28;20033;-68
2022/03/07 04:36:40;;;;;;;32.28;15.48;;;;;;;-2.43;80.33;102461.72;5003663;28;20107;-68
2022/03/07 04:39:07;;;;;;;35.22;16.27;;;;;;;-2.39;80.25;102461.66;5024720;28;20029;-69
2022/03/07 04:41:33;;;;;;;31.00;15.55;;;;;;;-2.42;79.92;102465.97;5022439;28;20111;-68
2022/03/07 04:43:59;;;;;;;32.35;17.38;;;;;;;-2.46;79.97;102466.91;5024124;28;20033;-68
2022/03/07 04:46:25;;;;;;;32.15;15.48;;;;;;;-2.28;79.47;102471.63;4990131;28;20467;-68
2022/03/07 04:48:51;;;;;;;30.80;16.13;;;;;;;-2.33;78.99;102460.69;5022635;28;20033;-68
2022/03/07 04:51:16;;;;;;;28.25;15.45;;;;;;;-2.39;79.12;102468.44;5010772;28;20034;-69
2022/03/07 04:53:42;;;;;;;35.95;15.73;;;;;;;-2.40;79.36;102464.22;5019963;28;20026;-68
2022/03/07 04:56:09;;;;;;;28.63;15.85;;;;;;;-2.37;79.32;102469.25;5026928;28;20017;-68
2022/03/07 04:58:35;;;;;;;31.15;15.43;;;;;;;-2.35;79.09;102470.88;5009267;28;20029;-68
2022/03/07 05:01:00;;;;;;;28.75;14.63;;;;;;;-2.30;78.91;102473.31;5011966;28;20029;-69
2022/03/07 05:03:26;;;;;;;25.70;14.07;;;;;;;-2.30;78.59;102470.78;5008859;28;20145;-67
2022/03/07 05:05:52;;;;;;;26.52;14.57;;;;;;;-2.33;79.10;102470.88;5006005;28;20075;-68
2022/03/07 05:08:17;;;;;;;27.58;15.00;;;;;;;-2.36;79.31;102471.75;5008392;28;20168;-68
2022/03/07 05:10:43;;;;;;;27.23;14.80;;;;;;;-2.30;79.31;102473.31;5008856;28;20038;-68
2022/03/07 05:13:09;;;;;;;29.75;14.35;;;;;;;-2.33;79.26;102477.66;5027027;28;20041;-69
2022/03/07 05:15:35;;;;;;;23.70;13.25;;;;;;;-2.37;79.51;102475.16;5010456;28;20017;-69
2022/03/07 05:18:00;;;;;;;27.13;14.30;;;;;;;-2.39;79.46;102473.53;5008912;28;20108;-68
2022/03/07 05:20:26;;;;;;;28.13;14.85;;;;;;;-2.39;79.31;102476.06;5008569;28;20566;-68
2022/03/07 05:22:52;;;;;;;25.95;13.52;;;;;;;-2.41;79.31;102483.72;5024434;28;20030;-68
2022/03/07 05:25:19;;;;;;;27.20;14.43;;;;;;;-2.40;79.48;102475.22;5005660;28;20125;-68
2022/03/07 05:27:45;;;;;;;26.88;14.23;;;;;;;-2.37;79.31;102471.78;5004130;28;20033;-68
2022/03/07 05:30:16;;;;;;;31.85;15.18;;;;;;;-2.23;78.63;102477.41;5027735;28;20079;-68
2022/03/07 05:32:46;;;;;;;28.77;13.88;;;;;;;-2.18;78.43;102475.63;5026509;28;20037;-68
2022/03/07 05:35:12;;;;;;;23.15;13.20;;;;;;;-1.98;77.25;102485.38;5003320;28;20400;-69
2022/03/07 05:37:38;;;;;;;31.55;13.48;;;;;;;-2.04;77.01;102474.47;5032319;28;20595;-68
2022/03/07 05:40:06;;;;;;;23.75;13.32;;;;;;;-2.07;76.99;102477.94;5027075;28;20033;-68
2022/03/07 05:42:33;;;;;;;26.42;13.80;;;;;;;-1.99;76.89;102480.31;5026641;28;20430;-68
2022/03/07 05:44:58;;;;;;;27.52;14.43;;;;;;;-1.80;75.46;102480.72;5010672;28;20022;-69
2022/03/07 05:47:24;;;;;;;26.42;14.05;;;;;;;-1.85;74.93;102474.91;4996552;28;20096;-69
2022/03/07 05:49:49;;;;;;;25.42;12.98;;;;;;;-1.96;75.40;102477.69;5009615;28;20026;-70
2022/03/07 05:52:15;;;;;;;26.38;13.75;;;;;;;-1.94;75.57;102486.13;5027226;28;20033;-69
2022/03/07 05:54:41;;;;;;;26.05;13.40;;;;;;;-1.90;76.10;102485.19;5025719;28;20483;-68
2022/03/07 05:57:06;;;;;;;25.73;13.60;;;;;;;-1.92;76.26;102486.94;5007944;28;20492;-69
2022/03/07 05:59:32;;;;;;;21.13;12.80;;;;;;;-2.00;76.46;102483.72;5010064;28;20120;-69
2022/03/07 06:01:58;;;;;;;25.65;13.43;;;;;;;-2.08;76.63;102483.06;5029235;28;20037;-70
2022/03/07 06:04:23;;;;;;;28.33;13.85;;;;;;;-2.13;76.95;102480.59;5006798;28;20048;-69
2022/03/07 06:06:49;;;;;;;23.52;13.40;;;;;;;-2.17;77.45;102487.47;5012045;28;20098;-68
2022/03/07 06:09:14;;;;;;;24.02;13.45;;;;;;;-2.13;77.39;102489.94;5028364;28;20553;-70
2022/03/07 06:11:40;;;;;;;26.98;14.15;;;;;;;-2.16;77.13;102484.03;5004965;28;20037;-70
2022/03/07 06:14:05;;;;;;;30.67;14.00;;;;;;;-2.19;77.35;102489.19;5029872;28;20029;-68
2022/03/07 06:16:31;;;;;;;27.67;14.65;;;;;;;-2.19;77.67;102498.53;5028730;28;20607;-69
2022/03/07 06:18:56;;;;;;;21.75;12.77;;;;;;;-2.19;77.60;102501.06;5029404;28;20026;-68
2022/03/07 06:21:21;;;;;;;23.27;12.68;;;;;;;-2.19;77.87;102498.53;5026549;28;20037;-68
2022/03/07 06:23:47;;;;;;;27.13;15.23;;;;;;;-2.19;77.70;102506.16;5014186;28;20083;-69
2022/03/07 06:26:13;;;;;;;27.48;13.98;;;;;;;-2.20;77.81;102507.84;5028959;28;20052;-69
2022/03/07 06:28:38;;;;;;;25.10;13.27;;;;;;;-2.18;78.08;102508.66;5023582;28;20041;-69
2022/03/07 06:31:04;;;;;;;27.25;13.50;;;;;;;-2.17;78.22;102512.88;5019991;28;20044;-68
2022/03/07 06:33:30;;;;;;;25.42;12.73;;;;;;;-2.15;78.14;102505.22;5027749;28;20516;-68
2022/03/07 06:35:55;;;;;;;22.10;12.13;;;;;;;-2.14;78.27;102501.81;5029015;28;20025;-68
2022/03/07 06:38:21;;;;;;;30.77;13.48;;;;;;;-2.10;78.26;102510.22;5005470;28;20044;-68
2022/03/07 06:40:47;;;;;;;28.13;13.05;;;;;;;-2.08;78.06;102508.47;5027082;28;20048;-69
2022/03/07 06:43:12;;;;;;;25.23;12.85;;;;;;;-2.00;78.15;102509.13;5024233;28;20046;-70
2022/03/07 06:45:38;;;;;;;27.00;13.50;;;;;;;-1.96;78.16;102513.28;5030647;28;20022;-69
2022/03/07 06:48:05;;;;;;;24.23;12.77;;;;;;;-1.83;77.22;102504.53;4994577;28;20034;-68
2022/03/07 06:50:30;;;;;;;25.13;12.95;;;;;;;-1.67;76.45;102519.44;5026253;28;20108;-69
2022/03/07 06:52:57;;;;;;;20.50;11.57;;;;;;;-1.61;75.68;102515.03;4996222;28;20072;-70
2022/03/07 06:55:23;;;;;;;19.80;11.85;;;;;;;-1.57;75.28;102514.09;4995511;28;20037;-68
2022/03/07 06:57:48;;;;;;;24.02;12.40;;;;;;;-1.45;75.17;102515.53;5022710;28;20033;-69
2022/03/07 07:00:15;;;;;;;24.00;12.20;;;;;;;-1.41;75.27;102514.59;5009995;28;20045;-69
2022/03/07 07:02:41;;;;;;;21.52;12.05;;;;;;;-1.34;75.22;102510.16;5027706;28;20036;-69
2022/03/07 07:05:08;;;;;;;26.58;12.25;;;;;;;-1.26;75.22;102508.28;5010169;28;20037;-71
2022/03/07 07:07:34;;;;;;;21.92;12.07;;;;;;;-1.11;75.61;102517.25;5026998;28;20036;-69
2022/03/07 07:10:00;;;;;;;23.17;13.02;;;;;;;-0.87;75.23;102515.78;5020990;28;20160;-69
2022/03/07 07:12:26;;;;;;;23.90;12.32;;;;;;;-0.79;74.78;102518.16;5002825;28;20550;-69
2022/03/07 07:14:51;;;;;;;24.25;12.27;;;;;;;-0.68;74.27;102513.59;5007005;28;20079;-69
2022/03/07 07:17:17;;;;;;;21.77;12.48;;;;;;;-0.56;73.27;102520.06;5027212;28;20542;-70
2022/03/07 07:19:43;;;;;;;21.30;11.68;;;;;;;-0.47;72.57;102522.38;5025596;28;20033;-72
2022/03/07 07:22:09;;;;;;;21.42;11.73;;;;;;;-0.15;71.54;102520.63;5009049;28;20037;-68
2022/03/07 07:24:34;;;;;;;19.33;10.43;;;;;;;0.16;69.30;102527.38;5023695;28;20041;-68
2022/03/07 07:27:00;;;;;;;17.85;9.98;;;;;;;0.41;68.33;102522.31;5016680;28;20029;-69
2022/03/07 07:29:26;;;;;;;18.98;10.00;;;;;;;0.80;67.45;102526.22;5003974;28;20118;-68
2022/03/07 07:31:54;;;;;;;20.38;9.45;;;;;;;1.40;65.56;102514.78;5024678;28;20025;-68
2022/03/07 07:34:20;;;;;;;17.17;9.57;;;;;;;1.93;64.00;102522.22;5025072;28;20034;-69
2022/03/07 07:36:47;;;;;;;22.05;9.90;;;;;;;1.76;62.06;102522.00;5023661;28;20030;-69
2022/03/07 07:39:12;;;;;;;16.73;9.73;;;;;;;1.81;62.34;102526.94;5024761;28;20471;-69
2022/03/07 07:41:38;;;;;;;18.45;8.82;;;;;;;1.51;62.54;102532.31;5024176;28;20041;-70
2022/03/07 07:44:04;;;;;;;19.63;9.25;;;;;;;1.15;63.33;102519.94;5009270;28;20028;-68
2022/03/07 07:46:29;;;;;;;19.02;9.40;;;;;;;1.60;63.00;102524.31;5023209;28;20033;-69
2022/03/07 07:48:55;;;;;;;18.17;8.88;;;;;;;2.05;61.67;102526.03;5015101;28;20046;-69
2022/03/07 07:51:21;;;;;;;16.55;8.95;;;;;;;2.52;60.52;102519.94;5027808;28;20034;-70
2022/03/07 07:53:46;;;;;;;26.27;10.68;;;;;;;3.19;57.98;102523.19;5021594;28;20045;-69
2022/03/07 07:56:12;;;;;;;20.35;9.50;;;;;;;3.73;55.50;102524.22;5004800;28;20033;-69
2022/03/07 07:58:38;;;;;;;12.77;7.28;;;;;;;3.85;52.91;102523.66;5018059;28;20032;-69
2022/03/07 08:01:04;;;;;;;14.70;6.05;;;;;;;3.88;52.53;102515.81;5005537;28;20030;-69
2022/03/07 08:03:30;;;;;;;9.57;5.85;;;;;;;4.49;51.40;102521.53;5023229;28;20033;-70
2022/03/07 08:05:55;;;;;;;9.75;5.57;;;;;;;4.84;49.63;102517.22;5008541;28;20542;-70
2022/03/07 08:08:21;;;;;;;7.65;4.78;;;;;;;4.73;46.90;102516.94;5024206;28;20033;-69
2022/03/07 08:10:46;;;;;;;8.25;5.40;;;;;;;4.33;47.19;102521.41;5024006;28;20048;-70
2022/03/07 08:13:12;;;;;;;9.40;4.47;;;;;;;4.55;46.31;102525.53;4991545;28;20025;-71
2022/03/07 08:15:37;;;;;;;7.75;4.75;;;;;;;4.89;46.94;102522.13;5006297;28;20037;-70
2022/03/07 08:18:03;;;;;;;6.30;4.28;;;;;;;4.76;45.34;102524.47;4999183;28;20022;-70
2022/03/07 08:20:28;;;;;;;7.38;4.70;;;;;;;4.99;46.05;102520.78;5000759;28;20061;-72
2022/03/07 08:22:54;;;;;;;9.38;4.82;;;;;;;5.15;44.48;102518.25;5003830;28;20069;-69
2022/03/07 08:25:21;;;;;;;7.63;4.28;;;;;;;5.46;44.14;102519.22;5005750;28;20030;-70
2022/03/07 08:27:48;;;;;;;8.55;4.68;;;;;;;5.43;44.62;102524.53;5025651;28;20036;-70
2022/03/07 08:30:18;;;;;;;13.18;4.43;;;;;;;5.76;44.85;102521.91;5023287;28;20037;-70
2022/03/07 08:32:45;;;;;;;7.97;4.40;;;;;;;5.99;42.81;102523.28;5009953;28;20149;-72
2022/03/07 08:35:11;;;;;;;7.97;4.85;;;;;;;5.64;43.14;102527.72;5003710;28;20076;-70
2022/03/07 08:37:38;;;;;;;8.63;4.38;;;;;;;5.79;42.94;102529.47;5021656;28;20499;-70
2022/03/07 08:40:05;;;;;;;7.95;4.40;;;;;;;6.42;42.86;102525.19;5005134;28;20043;-69
2022/03/07 08:42:31;;;;;;;6.35;3.78;;;;;;;6.63;41.93;102528.31;5026437;28;20116;-71
2022/03/07 08:44:57;;;;;;;7.55;3.75;;;;;;;6.95;41.84;102523.88;4984432;28;20124;-70
2022/03/07 08:47:22;;;;;;;10.07;3.63;;;;;;;6.55;41.19;102528.75;5029787;28;20033;-70
2022/03/07 08:49:48;;;;;;;12.02;3.95;;;;;;;6.75;41.51;102531.94;5025878;28;20076;-71
2022/03/07 08:52:17;;;;;;;5.40;3.65;;;;;;;5.97;41.55;102535.41;5026144;28;20025;-71
2022/03/07 08:54:43;;;;;;;7.50;3.30;;;;;;;5.83;41.72;102527.56;4996755;28;20045;-71
2022/03/07 08:57:09;;;;;;;4.78;3.25;;;;;;;6.18;41.26;102517.13;5024567;28;20523;-72
2022/03/07 08:59:35;;;;;;;5.82;3.33;;;;;;;6.57;40.80;102523.50;5006509;28;20495;-71
2022/03/07 09:02:00;;;;;;;5.00;3.17;;;;;;;5.54;41.67;102527.38;4990043;28;20041;-70
2022/03/07 09:04:26;;;;;;;5.38;3.13;;;;;;;5.84;42.02;102529.25;4992693;28;20087;-71
2022/03/07 09:06:52;;;;;;;8.18;3.53;;;;;;;6.02;41.21;102525.66;5003547;28;20526;-70
2022/03/07 09:09:18;;;;;;;6.03;3.45;;;;;;;5.73;40.82;102519.50;5026875;28;20061;-71
2022/03/07 09:11:43;;;;;;;4.88;3.22;;;;;;;5.83;41.73;102523.22;5020310;28;20492;-71
2022/03/07 09:14:09;;;;;;;6.93;3.80;;;;;;;5.78;42.04;102530.41;5022121;28;20033;-75
2022/03/07 09:16:34;;;;;;;5.65;3.28;;;;;;;5.89;41.82;102532.38;5005237;28;20034;-70
2022/03/07 09:19:00;;;;;;;6.68;3.50;;;;;;;5.74;41.34;102520.34;5018592;28;20037;-70
2022/03/07 09:21:26;;;;;;;6.65;3.35;;;;;;;5.33;42.36;102521.63;5020718;28;20038;-70
2022/03/07 09:23:51;;;;;;;5.70;3.65;;;;;;;5.07;43.32;102513.50;5024535;28;20056;-71
2022/03/07 09:26:17;;;;;;;8.55;3.63;;;;;;;5.12;43.16;102507.28;5021929;28;20089;-70
2022/03/07 09:28:43;;;;;;;5.60;3.42;;;;;;;5.12;43.38;102515.81;5002540;28;20112;-70
2022/03/07 09:31:09;;;;;;;6.28;3.65;;;;;;;5.42;43.32;102518.53;4986731;28;20112;-71
2022/03/07 09:33:35;;;;;;;6.90;3.40;;;;;;;5.19;42.56;102516.34;5023564;28;20205;-70
2022/03/07 09:36:00;;;;;;;5.53;3.60;;;;;;;5.26;43.01;102510.81;5003287;28;20037;-70
2022/03/07 09:38:28;;;;;;;7.57;3.35;;;;;;;5.17;43.25;102508.72;5001019;28;20034;-70
2022/03/07 09:40:54;;;;;;;7.30;3.60;;;;;;;4.85;43.23;102508.59;4993809;28;20079;-71
2022/03/07 09:43:20;;;;;;;9.35;3.40;;;;;;;4.80;44.48;102507.16;4993483;28;20136;-70
2022/03/07 09:45:47;;;;;;;5.85;3.50;;;;;;;4.79;43.96;102503.78;5020634;28;20094;-71
2022/03/07 09:48:12;;;;;;;6.22;3.80;;;;;;;4.79;43.58;102503.78;4989046;28;20026;-70
2022/03/07 09:50:40;;;;;;;7.45;3.63;;;;;;;4.72;44.40;102494.69;5003562;28;20053;-71
2022/03/07 09:53:07;;;;;;;6.47;3.72;;;;;;;4.45;44.27;102499.47;5005388;28;20025;-71
2022/03/07 09:55:33;;;;;;;7.80;4.05;;;;;;;4.34;44.86;102497.41;5022874;28;20025;-70
2022/03/07 09:57:58;;;;;;;5.75;3.58;;;;;;;4.32;45.00;102500.97;5018874;28;20492;-70
2022/03/07 10:00:24;;;;;;;5.80;3.67;;;;;;;4.23;44.58;102490.22;5022361;28;20037;-70
2022/03/07 10:02:58;;;;;;;6.25;3.50;;;;;;;4.41;46.16;102483.38;5002871;28;20623;-70
2022/03/07 10:05:33;;;;;;;7.38;3.63;;;;;;;4.66;45.03;102479.59;5022026;28;20026;-71
2022/03/07 10:07:59;;;;;;;9.65;4.15;;;;;;;4.84;45.05;102488.09;5026382;28;20037;-70
2022/03/07 10:10:36;;;;;;;5.65;3.63;;;;;;;4.44;45.28;102483.19;5024783;28;20048;-70
2022/03/07 10:13:06;;;;;;;5.97;3.72;;;;;;;4.46;45.19;102473.72;5028154;28;20123;-70
2022/03/07 10:15:32;;;;;;;7.72;4.15;;;;;;;4.51;45.78;102473.47;5008560;28;20075;-70
2022/03/07 10:17:57;;;;;;;10.52;3.80;;;;;;;4.71;46.04;102476.78;5009244;28;20535;-70
2022/03/07 10:20:25;;;;;;;5.60;3.75;;;;;;;4.68;46.12;102472.63;5006742;28;20116;-71
2022/03/07 10:22:53;;;;;;;9.45;4.43;;;;;;;4.62;45.26;102472.94;4998552;28;20117;-70
2022/03/07 10:25:26;;;;;;;9.38;3.70;;;;;;;4.68;46.57;102470.88;5005662;28;20034;-70
2022/03/07 10:27:52;;;;;;;10.30;3.97;;;;;;;4.71;45.73;102479.34;5006199;28;20065;-70
2022/03/07 10:30:30;;;;;;;5.57;3.22;;;;;;;4.76;44.83;102472.25;5011920;28;20115;-70
2022/03/07 10:32:55;;;;;;;6.40;3.35;;;;;;;4.81;44.89;102462.56;5023592;28;20118;-69
2022/03/07 10:35:31;;;;;;;6.47;3.83;;;;;;;4.85;45.72;102467.47;5006970;28;20502;-71
2022/03/07 10:38:00;;;;;;;4.50;3.38;;;;;;;4.86;45.12;102458.88;4988731;28;20094;-70
2022/03/07 10:40:27;;;;;;;7.45;3.88;;;;;;;4.78;45.28;102463.53;5017146;28;20487;-70
2022/03/07 10:42:54;;;;;;;7.50;3.47;;;;;;;4.85;45.34;102467.47;5008132;28;20447;-71
2022/03/07 10:45:20;;;;;;;6.70;3.50;;;;;;;4.87;45.66;102464.81;5008510;28;20026;-69
2022/03/07 10:48:01;;;;;;;6.15;3.90;;;;;;;4.89;44.50;102473.28;5009578;28;20021;-70
2022/03/07 10:50:28;;;;;;;6.85;4.00;;;;;;;4.87;43.92;102460.50;4988189;28;20427;-70
2022/03/07 10:53:05;;;;;;;5.75;3.55;;;;;;;4.81;45.63;102450.53;5029769;28;20037;-70
2022/03/07 10:55:32;;;;;;;5.35;3.78;;;;;;;4.89;46.46;102447.56;4995585;28;20040;-70
2022/03/07 10:58:12;;;;;;;7.28;3.65;;;;;;;4.83;45.35;102442.75;5006141;28;20029;-70
2022/03/07 11:00:53;;;;;;;8.55;3.70;;;;;;;4.73;45.92;102438.97;5016769;28;20419;-71
2022/03/07 11:03:34;;;;;;;8.10;3.78;;;;;;;4.94;46.65;102432.75;5008459;28;20040;-70
2022/03/07 11:06:01;;;;;;;5.13;3.33;;;;;;;5.06;45.98;102439.81;5024309;28;20477;-70
2022/03/07 11:08:27;;;;;;;6.47;3.30;;;;;;;4.95;45.75;102423.28;5017903;28;20033;-70
2022/03/07 11:10:57;;;;;;;8.93;3.80;;;;;;;5.18;45.69;102417.78;5001660;28;20188;-70
2022/03/07 11:13:26;;;;;;;9.00;3.95;;;;;;;5.31;44.90;102419.69;4985553;28;20038;-70